sensor_id;sensor_type;location;lat;lon;timestamp;P1;durP1;ratioP1;P2;durP2;ratioP2
286;SDS011;127;48.770;9.212;2023-01-05T00:01:37;2.70;;;1.30;;
286;SDS011;127;48.770;9.212;2023-01-05T00:04:06;1.27;;;1.20;;
286;SDS011;127;48.770;9.212;2023-01-05T00:06:34;2.30;;;1.40;;
286;SDS011;127;48.770;9.212;2023-01-05T00:09:06;1.37;;;1.27;;
286;SDS011;127;48.770;9.212;2023-01-05T00:11:38;1.20;;;1.10;;
286;SDS011;127;48.770;9.212;2023-01-05T00:14:20;1.10;;;1.10;;
286;SDS011;127;48.770;9.212;2023-01-05T00:17:02;2.30;;;1.20;;
286;SDS011;127;48.770;9.212;2023-01-05T00:19:44;2.00;;;1.27;;
286;SDS011;127;48.770;9.212;2023-01-05T00:22:40;1.40;;;1.30;;
286;SDS011;127;48.770;9.212;2023-01-05T00:25:14;1.23;;;1.10;;
286;SDS011;127;48.770;9.212;2023-01-05T00:27:44;1.30;;;1.23;;
286;SDS011;127;48.770;9.212;2023-01-05T00:30:16;0.90;;;0.90;;
286;SDS011;127;48.770;9.212;2023-01-05T00:32:46;1.13;;;1.10;;
286;SDS011;127;48.770;9.212;2023-01-05T00:35:14;1.20;;;1.10;;
286;SDS011;127;48.770;9.212;2023-01-05T00:37:43;1.40;;;1.20;;
286;SDS011;127;48.770;9.212;2023-01-05T00:40:15;1.47;;;1.40;;
286;SDS011;127;48.770;9.212;2023-01-05T00:42:46;2.83;;;1.20;;
286;SDS011;127;48.770;9.212;2023-01-05T00:45:15;1.67;;;1.37;;
286;SDS011;127;48.770;9.212;2023-01-05T00:47:46;1.40;;;1.00;;
286;SDS011;127;48.770;9.212;2023-01-05T00:50:16;2.80;;;1.20;;
286;SDS011;127;48.770;9.212;2023-01-05T00:52:46;1.47;;;1.17;;
286;SDS011;127;48.770;9.212;2023-01-05T00:55:17;1.10;;;1.00;;
286;SDS011;127;48.770;9.212;2023-01-05T00:57:46;1.00;;;1.00;;
286;SDS011;127;48.770;9.212;2023-01-05T01:00:15;1.37;;;1.10;;
286;SDS011;127;48.770;9.212;2023-01-05T01:02:45;1.17;;;1.07;;
286;SDS011;127;48.770;9.212;2023-01-05T01:05:17;1.33;;;1.23;;
286;SDS011;127;48.770;9.212;2023-01-05T01:07:46;1.10;;;1.00;;
286;SDS011;127;48.770;9.212;2023-01-05T01:10:17;1.07;;;0.97;;
286;SDS011;127;48.770;9.212;2023-01-05T01:12:46;1.17;;;1.07;;
286;SDS011;127;48.770;9.212;2023-01-05T01:15:14;1.27;;;1.27;;
286;SDS011;127;48.770;9.212;2023-01-05T01:17:43;0.77;;;0.73;;
286;SDS011;127;48.770;9.212;2023-01-05T01:20:12;1.30;;;1.20;;
286;SDS011;127;48.770;9.212;2023-01-05T01:22:40;1.20;;;1.10;;
286;SDS011;127;48.770;9.212;2023-01-05T01:25:09;1.50;;;1.13;;
286;SDS011;127;48.770;9.212;2023-01-05T01:27:40;1.10;;;1.00;;
286;SDS011;127;48.770;9.212;2023-01-05T01:30:09;1.20;;;1.10;;
286;SDS011;127;48.770;9.212;2023-01-05T01:32:39;1.10;;;1.00;;
286;SDS011;127;48.770;9.212;2023-01-05T01:35:08;0.80;;;0.70;;
286;SDS011;127;48.770;9.212;2023-01-05T01:37:38;1.20;;;1.10;;
286;SDS011;127;48.770;9.212;2023-01-05T01:40:07;1.00;;;0.90;;
286;SDS011;127;48.770;9.212;2023-01-05T01:42:40;1.10;;;1.00;;
286;SDS011;127;48.770;9.212;2023-01-05T01:45:11;1.57;;;1.20;;
286;SDS011;127;48.770;9.212;2023-01-05T01:47:46;1.17;;;1.10;;
286;SDS011;127;48.770;9.212;2023-01-05T01:50:19;1.50;;;1.10;;
286;SDS011;127;48.770;9.212;2023-01-05T01:52:50;1.40;;;1.30;;
286;SDS011;127;48.770;9.212;2023-01-05T01:55:21;2.63;;;1.00;;
286;SDS011;127;48.770;9.212;2023-01-05T01:57:53;1.03;;;0.97;;
286;SDS011;127;48.770;9.212;2023-01-05T02:00:22;1.40;;;1.30;;
286;SDS011;127;48.770;9.212;2023-01-05T02:02:52;1.03;;;0.97;;
286;SDS011;127;48.770;9.212;2023-01-05T02:05:23;1.20;;;1.10;;
286;SDS011;127;48.770;9.212;2023-01-05T02:07:55;1.10;;;1.00;;
286;SDS011;127;48.770;9.212;2023-01-05T02:10:26;1.10;;;1.00;;
286;SDS011;127;48.770;9.212;2023-01-05T02:13:12;1.20;;;1.10;;
286;SDS011;127;48.770;9.212;2023-01-05T02:15:52;1.50;;;1.07;;
286;SDS011;127;48.770;9.212;2023-01-05T02:18:34;0.90;;;0.90;;
286;SDS011;127;48.770;9.212;2023-01-05T02:21:16;4.13;;;1.00;;
286;SDS011;127;48.770;9.212;2023-01-05T02:24:00;1.10;;;1.00;;
286;SDS011;127;48.770;9.212;2023-01-05T02:30:11;1.10;;;1.10;;
286;SDS011;127;48.770;9.212;2023-01-05T02:33:01;1.00;;;1.00;;
286;SDS011;127;48.770;9.212;2023-01-05T02:35:39;1.07;;;1.03;;
286;SDS011;127;48.770;9.212;2023-01-05T02:38:13;1.03;;;0.97;;
286;SDS011;127;48.770;9.212;2023-01-05T02:40:48;1.07;;;0.97;;
286;SDS011;127;48.770;9.212;2023-01-05T02:43:23;1.00;;;0.90;;
286;SDS011;127;48.770;9.212;2023-01-05T02:45:53;1.10;;;0.93;;
286;SDS011;127;48.770;9.212;2023-01-05T02:48:25;1.00;;;0.87;;
286;SDS011;127;48.770;9.212;2023-01-05T02:50:55;0.80;;;0.80;;
286;SDS011;127;48.770;9.212;2023-01-05T02:53:27;0.87;;;0.80;;
286;SDS011;127;48.770;9.212;2023-01-05T02:56:00;1.47;;;1.10;;
286;SDS011;127;48.770;9.212;2023-01-05T02:58:34;1.83;;;1.00;;
286;SDS011;127;48.770;9.212;2023-01-05T03:01:06;1.00;;;0.90;;
286;SDS011;127;48.770;9.212;2023-01-05T03:03:42;1.00;;;0.90;;
286;SDS011;127;48.770;9.212;2023-01-05T03:06:14;1.07;;;0.97;;
286;SDS011;127;48.770;9.212;2023-01-05T03:08:47;2.10;;;1.97;;
286;SDS011;127;48.770;9.212;2023-01-05T03:11:18;0.80;;;0.80;;
286;SDS011;127;48.770;9.212;2023-01-05T03:16:46;0.90;;;0.90;;
286;SDS011;127;48.770;9.212;2023-01-05T03:19:20;1.37;;;1.10;;
286;SDS011;127;48.770;9.212;2023-01-05T03:22:03;1.00;;;0.90;;
286;SDS011;127;48.770;9.212;2023-01-05T03:24:49;1.10;;;0.80;;
286;SDS011;127;48.770;9.212;2023-01-05T03:27:30;1.10;;;1.00;;
286;SDS011;127;48.770;9.212;2023-01-05T03:30:12;1.17;;;1.07;;
286;SDS011;127;48.770;9.212;2023-01-05T03:32:54;1.00;;;0.90;;
286;SDS011;127;48.770;9.212;2023-01-05T03:35:43;2.90;;;1.00;;
286;SDS011;127;48.770;9.212;2023-01-05T03:38:20;1.20;;;1.10;;
286;SDS011;127;48.770;9.212;2023-01-05T03:40:54;1.00;;;0.97;;
286;SDS011;127;48.770;9.212;2023-01-05T03:43:26;2.03;;;1.10;;
286;SDS011;127;48.770;9.212;2023-01-05T03:45:55;0.70;;;0.70;;
286;SDS011;127;48.770;9.212;2023-01-05T03:48:24;1.00;;;0.90;;
286;SDS011;127;48.770;9.212;2023-01-05T03:50:58;1.10;;;1.00;;
286;SDS011;127;48.770;9.212;2023-01-05T03:53:26;1.00;;;0.90;;
286;SDS011;127;48.770;9.212;2023-01-05T03:55:55;0.90;;;0.80;;
286;SDS011;127;48.770;9.212;2023-01-05T03:58:24;0.80;;;0.80;;
286;SDS011;127;48.770;9.212;2023-01-05T04:00:52;0.90;;;0.80;;
286;SDS011;127;48.770;9.212;2023-01-05T04:03:21;2.10;;;0.83;;
286;SDS011;127;48.770;9.212;2023-01-05T04:05:50;1.00;;;0.90;;
286;SDS011;127;48.770;9.212;2023-01-05T04:08:21;0.70;;;0.70;;
286;SDS011;127;48.770;9.212;2023-01-05T04:10:50;1.20;;;1.00;;
286;SDS011;127;48.770;9.212;2023-01-05T04:13:20;0.83;;;0.80;;
286;SDS011;127;48.770;9.212;2023-01-05T04:15:49;0.87;;;0.83;;
286;SDS011;127;48.770;9.212;2023-01-05T04:18:17;1.47;;;0.90;;
286;SDS011;127;48.770;9.212;2023-01-05T04:20:46;1.10;;;1.00;;
286;SDS011;127;48.770;9.212;2023-01-05T04:23:14;0.80;;;0.80;;
286;SDS011;127;48.770;9.212;2023-01-05T04:25:47;0.90;;;0.90;;
286;SDS011;127;48.770;9.212;2023-01-05T04:28:16;0.80;;;0.80;;
286;SDS011;127;48.770;9.212;2023-01-05T04:30:47;1.00;;;0.90;;
286;SDS011;127;48.770;9.212;2023-01-05T04:33:16;0.87;;;0.80;;
286;SDS011;127;48.770;9.212;2023-01-05T04:35:45;1.00;;;0.90;;
286;SDS011;127;48.770;9.212;2023-01-05T04:38:14;1.00;;;0.80;;
286;SDS011;127;48.770;9.212;2023-01-05T04:40:49;0.80;;;0.77;;
286;SDS011;127;48.770;9.212;2023-01-05T04:43:18;0.97;;;0.80;;
286;SDS011;127;48.770;9.212;2023-01-05T04:45:47;0.77;;;0.77;;
286;SDS011;127;48.770;9.212;2023-01-05T04:48:16;1.33;;;1.23;;
286;SDS011;127;48.770;9.212;2023-01-05T04:50:45;1.00;;;0.90;;
286;SDS011;127;48.770;9.212;2023-01-05T04:53:19;1.00;;;0.90;;
286;SDS011;127;48.770;9.212;2023-01-05T04:55:51;9.40;;;1.00;;
286;SDS011;127;48.770;9.212;2023-01-05T04:58:20;1.00;;;0.90;;
286;SDS011;127;48.770;9.212;2023-01-05T05:00:48;1.00;;;0.90;;
286;SDS011;127;48.770;9.212;2023-01-05T05:03:17;1.13;;;1.03;;
286;SDS011;127;48.770;9.212;2023-01-05T05:05:46;0.90;;;0.77;;
286;SDS011;127;48.770;9.212;2023-01-05T05:08:14;0.80;;;0.70;;
286;SDS011;127;48.770;9.212;2023-01-05T05:10:43;0.83;;;0.77;;
286;SDS011;127;48.770;9.212;2023-01-05T05:13:14;1.00;;;0.90;;
286;SDS011;127;48.770;9.212;2023-01-05T05:15:43;0.80;;;0.80;;
286;SDS011;127;48.770;9.212;2023-01-05T05:18:11;1.00;;;0.90;;
286;SDS011;127;48.770;9.212;2023-01-05T05:20:41;0.80;;;0.73;;
286;SDS011;127;48.770;9.212;2023-01-05T05:23:12;0.70;;;0.70;;
286;SDS011;127;48.770;9.212;2023-01-05T05:25:40;0.80;;;0.80;;
286;SDS011;127;48.770;9.212;2023-01-05T05:28:09;1.00;;;0.90;;
286;SDS011;127;48.770;9.212;2023-01-05T05:30:40;0.90;;;0.90;;
286;SDS011;127;48.770;9.212;2023-01-05T05:33:09;1.20;;;1.10;;
286;SDS011;127;48.770;9.212;2023-01-05T05:35:37;1.00;;;0.90;;
286;SDS011;127;48.770;9.212;2023-01-05T05:38:06;0.90;;;0.80;;
286;SDS011;127;48.770;9.212;2023-01-05T05:40:34;0.87;;;0.83;;
286;SDS011;127;48.770;9.212;2023-01-05T05:43:03;1.00;;;0.90;;
286;SDS011;127;48.770;9.212;2023-01-05T05:45:32;1.03;;;0.93;;
286;SDS011;127;48.770;9.212;2023-01-05T05:48:03;1.30;;;1.20;;
286;SDS011;127;48.770;9.212;2023-01-05T05:50:32;1.00;;;1.00;;
286;SDS011;127;48.770;9.212;2023-01-05T05:53:00;1.10;;;1.00;;
286;SDS011;127;48.770;9.212;2023-01-05T05:55:29;1.20;;;1.10;;
286;SDS011;127;48.770;9.212;2023-01-05T05:57:58;1.00;;;1.00;;
286;SDS011;127;48.770;9.212;2023-01-05T06:00:27;0.90;;;0.90;;
286;SDS011;127;48.770;9.212;2023-01-05T06:02:55;0.90;;;0.90;;
286;SDS011;127;48.770;9.212;2023-01-05T06:05:27;8.73;;;0.97;;
286;SDS011;127;48.770;9.212;2023-01-05T06:07:55;1.57;;;1.00;;
286;SDS011;127;48.770;9.212;2023-01-05T06:10:24;2.10;;;0.97;;
286;SDS011;127;48.770;9.212;2023-01-05T06:12:53;2.30;;;1.13;;
286;SDS011;127;48.770;9.212;2023-01-05T06:15:22;2.30;;;0.90;;
286;SDS011;127;48.770;9.212;2023-01-05T06:17:51;1.20;;;1.10;;
286;SDS011;127;48.770;9.212;2023-01-05T06:20:19;1.10;;;1.00;;
286;SDS011;127;48.770;9.212;2023-01-05T06:22:51;1.27;;;1.17;;
286;SDS011;127;48.770;9.212;2023-01-05T06:25:19;2.07;;;1.20;;
286;SDS011;127;48.770;9.212;2023-01-05T06:27:48;1.23;;;1.10;;
286;SDS011;127;48.770;9.212;2023-01-05T06:30:17;3.07;;;1.20;;
286;SDS011;127;48.770;9.212;2023-01-05T06:32:46;2.50;;;1.47;;
286;SDS011;127;48.770;9.212;2023-01-05T06:35:15;3.37;;;1.33;;
286;SDS011;127;48.770;9.212;2023-01-05T06:37:44;4.10;;;1.93;;
286;SDS011;127;48.770;9.212;2023-01-05T06:40:15;3.57;;;1.97;;
286;SDS011;127;48.770;9.212;2023-01-05T06:42:44;5.27;;;1.50;;
286;SDS011;127;48.770;9.212;2023-01-05T06:45:13;1.70;;;1.60;;
286;SDS011;127;48.770;9.212;2023-01-05T06:47:42;3.30;;;1.40;;
286;SDS011;127;48.770;9.212;2023-01-05T06:50:11;2.13;;;1.87;;
286;SDS011;127;48.770;9.212;2023-01-05T06:52:40;3.10;;;1.57;;
286;SDS011;127;48.770;9.212;2023-01-05T06:55:09;3.07;;;1.50;;
286;SDS011;127;48.770;9.212;2023-01-05T06:57:41;1.73;;;1.63;;
286;SDS011;127;48.770;9.212;2023-01-05T07:00:10;2.07;;;1.60;;
286;SDS011;127;48.770;9.212;2023-01-05T07:02:40;3.10;;;1.57;;
286;SDS011;127;48.770;9.212;2023-01-05T07:05:09;3.37;;;1.93;;
286;SDS011;127;48.770;9.212;2023-01-05T07:07:37;2.70;;;1.60;;
286;SDS011;127;48.770;9.212;2023-01-05T07:10:06;3.50;;;1.60;;
286;SDS011;127;48.770;9.212;2023-01-05T07:12:35;4.20;;;1.97;;
286;SDS011;127;48.770;9.212;2023-01-05T07:15:07;2.37;;;1.60;;
286;SDS011;127;48.770;9.212;2023-01-05T07:17:37;3.13;;;1.60;;
286;SDS011;127;48.770;9.212;2023-01-05T07:20:06;3.50;;;2.10;;
286;SDS011;127;48.770;9.212;2023-01-05T07:22:35;3.43;;;1.80;;
286;SDS011;127;48.770;9.212;2023-01-05T07:25:04;2.03;;;1.77;;
286;SDS011;127;48.770;9.212;2023-01-05T07:27:34;4.17;;;2.13;;
286;SDS011;127;48.770;9.212;2023-01-05T07:30:03;10.33;;;2.40;;
286;SDS011;127;48.770;9.212;2023-01-05T07:32:35;9.47;;;2.47;;
286;SDS011;127;48.770;9.212;2023-01-05T07:35:04;4.40;;;2.17;;
286;SDS011;127;48.770;9.212;2023-01-05T07:37:33;5.27;;;2.07;;
286;SDS011;127;48.770;9.212;2023-01-05T07:40:02;9.67;;;2.17;;
286;SDS011;127;48.770;9.212;2023-01-05T07:42:32;13.50;;;1.87;;
286;SDS011;127;48.770;9.212;2023-01-05T07:45:01;4.80;;;1.80;;
286;SDS011;127;48.770;9.212;2023-01-05T07:47:32;6.80;;;2.10;;
286;SDS011;127;48.770;9.212;2023-01-05T07:50:00;6.13;;;2.17;;
286;SDS011;127;48.770;9.212;2023-01-05T07:52:29;4.43;;;2.40;;
286;SDS011;127;48.770;9.212;2023-01-05T07:54:58;2.60;;;1.93;;
286;SDS011;127;48.770;9.212;2023-01-05T07:57:26;4.40;;;1.67;;
286;SDS011;127;48.770;9.212;2023-01-05T07:59:55;7.33;;;2.10;;
286;SDS011;127;48.770;9.212;2023-01-05T08:02:23;5.70;;;1.93;;
286;SDS011;127;48.770;9.212;2023-01-05T08:04:55;4.87;;;1.60;;
286;SDS011;127;48.770;9.212;2023-01-05T08:07:23;4.03;;;1.90;;
286;SDS011;127;48.770;9.212;2023-01-05T08:09:52;8.00;;;1.83;;
286;SDS011;127;48.770;9.212;2023-01-05T08:12:33;4.77;;;2.00;;
286;SDS011;127;48.770;9.212;2023-01-05T08:15:22;11.50;;;3.97;;
286;SDS011;127;48.770;9.212;2023-01-05T08:17:50;4.97;;;1.60;;
286;SDS011;127;48.770;9.212;2023-01-05T08:20:21;3.03;;;2.20;;
286;SDS011;127;48.770;9.212;2023-01-05T08:22:50;9.10;;;2.20;;
286;SDS011;127;48.770;9.212;2023-01-05T08:25:20;4.90;;;1.80;;
286;SDS011;127;48.770;9.212;2023-01-05T08:27:48;6.20;;;1.77;;
286;SDS011;127;48.770;9.212;2023-01-05T08:30:17;12.23;;;2.50;;
286;SDS011;127;48.770;9.212;2023-01-05T08:32:46;1.63;;;1.40;;
286;SDS011;127;48.770;9.212;2023-01-05T08:35:15;5.23;;;2.13;;
286;SDS011;127;48.770;9.212;2023-01-05T08:37:46;6.93;;;1.83;;
286;SDS011;127;48.770;9.212;2023-01-05T08:40:15;9.83;;;2.57;;
286;SDS011;127;48.770;9.212;2023-01-05T08:42:44;4.30;;;1.60;;
286;SDS011;127;48.770;9.212;2023-01-05T08:45:13;6.43;;;1.97;;
286;SDS011;127;48.770;9.212;2023-01-05T08:47:42;4.67;;;2.00;;
286;SDS011;127;48.770;9.212;2023-01-05T08:50:10;3.40;;;2.40;;
286;SDS011;127;48.770;9.212;2023-01-05T08:52:39;4.93;;;2.20;;
286;SDS011;127;48.770;9.212;2023-01-05T08:55:11;6.60;;;1.97;;
286;SDS011;127;48.770;9.212;2023-01-05T08:57:39;7.70;;;2.37;;
286;SDS011;127;48.770;9.212;2023-01-05T09:00:09;11.10;;;2.43;;
286;SDS011;127;48.770;9.212;2023-01-05T09:02:38;12.00;;;2.17;;
286;SDS011;127;48.770;9.212;2023-01-05T09:05:07;6.00;;;1.97;;
286;SDS011;127;48.770;9.212;2023-01-05T09:07:36;4.90;;;2.27;;
286;SDS011;127;48.770;9.212;2023-01-05T09:10:04;7.10;;;2.50;;
286;SDS011;127;48.770;9.212;2023-01-05T09:12:37;4.10;;;2.00;;
286;SDS011;127;48.770;9.212;2023-01-05T09:15:06;9.43;;;2.50;;
286;SDS011;127;48.770;9.212;2023-01-05T09:17:35;12.80;;;2.33;;
286;SDS011;127;48.770;9.212;2023-01-05T09:20:07;9.00;;;2.33;;
286;SDS011;127;48.770;9.212;2023-01-05T09:22:36;8.80;;;2.50;;
286;SDS011;127;48.770;9.212;2023-01-05T09:25:05;15.43;;;2.50;;
286;SDS011;127;48.770;9.212;2023-01-05T09:27:36;13.83;;;2.20;;
286;SDS011;127;48.770;9.212;2023-01-05T09:30:06;13.33;;;2.83;;
286;SDS011;127;48.770;9.212;2023-01-05T09:32:35;12.80;;;2.50;;
286;SDS011;127;48.770;9.212;2023-01-05T09:35:04;13.50;;;2.53;;
286;SDS011;127;48.770;9.212;2023-01-05T09:37:33;12.77;;;3.20;;
286;SDS011;127;48.770;9.212;2023-01-05T09:40:02;7.37;;;2.57;;
286;SDS011;127;48.770;9.212;2023-01-05T09:42:31;16.33;;;2.30;;
286;SDS011;127;48.770;9.212;2023-01-05T09:45:04;16.80;;;3.00;;
286;SDS011;127;48.770;9.212;2023-01-05T09:47:34;14.30;;;3.30;;
286;SDS011;127;48.770;9.212;2023-01-05T09:50:06;19.10;;;2.90;;
286;SDS011;127;48.770;9.212;2023-01-05T09:52:43;10.40;;;2.70;;
286;SDS011;127;48.770;9.212;2023-01-05T09:55:13;18.53;;;2.67;;
286;SDS011;127;48.770;9.212;2023-01-05T09:57:45;13.53;;;3.03;;
286;SDS011;127;48.770;9.212;2023-01-05T10:00:22;19.57;;;3.00;;
286;SDS011;127;48.770;9.212;2023-01-05T10:02:54;15.97;;;2.90;;
286;SDS011;127;48.770;9.212;2023-01-05T10:05:26;18.37;;;3.00;;
286;SDS011;127;48.770;9.212;2023-01-05T10:07:56;14.47;;;2.57;;
286;SDS011;127;48.770;9.212;2023-01-05T10:10:34;15.00;;;3.30;;
286;SDS011;127;48.770;9.212;2023-01-05T10:13:16;17.93;;;3.67;;
286;SDS011;127;48.770;9.212;2023-01-05T10:15:50;12.20;;;3.17;;
286;SDS011;127;48.770;9.212;2023-01-05T10:18:21;12.90;;;2.70;;
286;SDS011;127;48.770;9.212;2023-01-05T10:20:55;19.23;;;3.20;;
286;SDS011;127;48.770;9.212;2023-01-05T10:23:41;10.63;;;2.77;;
286;SDS011;127;48.770;9.212;2023-01-05T10:26:23;26.03;;;3.47;;
286;SDS011;127;48.770;9.212;2023-01-05T10:28:57;15.83;;;2.73;;
286;SDS011;127;48.770;9.212;2023-01-05T10:31:33;12.10;;;3.17;;
286;SDS011;127;48.770;9.212;2023-01-05T10:34:15;19.00;;;3.67;;
286;SDS011;127;48.770;9.212;2023-01-05T10:42:42;11.77;;;3.07;;
286;SDS011;127;48.770;9.212;2023-01-05T10:45:15;12.87;;;3.27;;
286;SDS011;127;48.770;9.212;2023-01-05T10:47:48;11.93;;;3.13;;
286;SDS011;127;48.770;9.212;2023-01-05T10:50:21;12.03;;;3.80;;
286;SDS011;127;48.770;9.212;2023-01-05T10:53:06;14.70;;;2.87;;
286;SDS011;127;48.770;9.212;2023-01-05T10:55:40;14.27;;;3.17;;
286;SDS011;127;48.770;9.212;2023-01-05T10:58:20;15.43;;;3.07;;
286;SDS011;127;48.770;9.212;2023-01-05T11:00:54;12.87;;;3.00;;
286;SDS011;127;48.770;9.212;2023-01-05T11:03:32;18.03;;;2.80;;
286;SDS011;127;48.770;9.212;2023-01-05T11:06:04;11.73;;;2.87;;
286;SDS011;127;48.770;9.212;2023-01-05T11:08:33;15.13;;;2.73;;
286;SDS011;127;48.770;9.212;2023-01-05T11:11:03;17.27;;;3.20;;
286;SDS011;127;48.770;9.212;2023-01-05T11:13:34;15.70;;;3.10;;
286;SDS011;127;48.770;9.212;2023-01-05T11:16:06;12.87;;;2.90;;
286;SDS011;127;48.770;9.212;2023-01-05T11:18:45;14.17;;;3.60;;
286;SDS011;127;48.770;9.212;2023-01-05T11:21:16;8.83;;;2.53;;
286;SDS011;127;48.770;9.212;2023-01-05T11:23:46;15.70;;;3.07;;
286;SDS011;127;48.770;9.212;2023-01-05T11:26:23;16.97;;;3.23;;
286;SDS011;127;48.770;9.212;2023-01-05T11:28:57;13.93;;;2.80;;
286;SDS011;127;48.770;9.212;2023-01-05T11:31:27;13.80;;;3.50;;
286;SDS011;127;48.770;9.212;2023-01-05T11:34:05;13.73;;;2.80;;
286;SDS011;127;48.770;9.212;2023-01-05T11:36:36;13.30;;;2.80;;
286;SDS011;127;48.770;9.212;2023-01-05T11:39:05;14.33;;;3.37;;
286;SDS011;127;48.770;9.212;2023-01-05T11:41:43;8.97;;;2.80;;
286;SDS011;127;48.770;9.212;2023-01-05T11:44:13;11.17;;;2.90;;
286;SDS011;127;48.770;9.212;2023-01-05T11:46:48;12.50;;;2.60;;
286;SDS011;127;48.770;9.212;2023-01-05T11:49:20;11.80;;;3.37;;
286;SDS011;127;48.770;9.212;2023-01-05T11:51:49;19.20;;;4.10;;
286;SDS011;127;48.770;9.212;2023-01-05T11:54:25;11.20;;;3.13;;
286;SDS011;127;48.770;9.212;2023-01-05T11:59:43;12.27;;;2.70;;
286;SDS011;127;48.770;9.212;2023-01-05T12:05:24;10.17;;;2.87;;
286;SDS011;127;48.770;9.212;2023-01-05T12:07:58;5.60;;;2.23;;
286;SDS011;127;48.770;9.212;2023-01-05T12:13:52;17.70;;;4.17;;
286;SDS011;127;48.770;9.212;2023-01-05T12:16:37;15.67;;;2.93;;
286;SDS011;127;48.770;9.212;2023-01-05T12:19:23;16.73;;;3.43;;
286;SDS011;127;48.770;9.212;2023-01-05T12:22:27;13.87;;;2.50;;
286;SDS011;127;48.770;9.212;2023-01-05T12:25:14;26.97;;;2.97;;
286;SDS011;127;48.770;9.212;2023-01-05T12:27:53;14.77;;;3.33;;
286;SDS011;127;48.770;9.212;2023-01-05T12:30:32;21.30;;;3.00;;
286;SDS011;127;48.770;9.212;2023-01-05T12:33:21;17.03;;;4.20;;
286;SDS011;127;48.770;9.212;2023-01-05T12:36:04;14.10;;;3.03;;
286;SDS011;127;48.770;9.212;2023-01-05T12:38:56;19.10;;;3.13;;
286;SDS011;127;48.770;9.212;2023-01-05T12:44:32;15.73;;;3.47;;
286;SDS011;127;48.770;9.212;2023-01-05T12:47:25;11.90;;;2.60;;
286;SDS011;127;48.770;9.212;2023-01-05T12:50:06;11.60;;;3.00;;
286;SDS011;127;48.770;9.212;2023-01-05T12:52:48;21.40;;;3.30;;
286;SDS011;127;48.770;9.212;2023-01-05T12:55:24;15.90;;;3.50;;
286;SDS011;127;48.770;9.212;2023-01-05T12:57:59;13.50;;;3.10;;
286;SDS011;127;48.770;9.212;2023-01-05T13:00:33;13.87;;;3.00;;
286;SDS011;127;48.770;9.212;2023-01-05T13:03:09;25.13;;;3.60;;
286;SDS011;127;48.770;9.212;2023-01-05T13:05:43;9.73;;;2.43;;
286;SDS011;127;48.770;9.212;2023-01-05T13:08:16;15.90;;;3.73;;
286;SDS011;127;48.770;9.212;2023-01-05T13:10:51;14.60;;;3.77;;
286;SDS011;127;48.770;9.212;2023-01-05T13:13:26;5.77;;;2.57;;
286;SDS011;127;48.770;9.212;2023-01-05T13:15:58;14.07;;;2.80;;
286;SDS011;127;48.770;9.212;2023-01-05T13:18:31;9.33;;;2.63;;
286;SDS011;127;48.770;9.212;2023-01-05T13:21:04;13.43;;;3.70;;
286;SDS011;127;48.770;9.212;2023-01-05T13:23:33;18.83;;;3.10;;
286;SDS011;127;48.770;9.212;2023-01-05T13:26:10;30.07;;;3.60;;
286;SDS011;127;48.770;9.212;2023-01-05T13:28:42;13.93;;;3.17;;
286;SDS011;127;48.770;9.212;2023-01-05T13:31:23;13.73;;;2.80;;
286;SDS011;127;48.770;9.212;2023-01-05T13:34:26;16.93;;;3.40;;
286;SDS011;127;48.770;9.212;2023-01-05T13:37:11;17.10;;;3.00;;
286;SDS011;127;48.770;9.212;2023-01-05T13:40:02;11.17;;;3.17;;
286;SDS011;127;48.770;9.212;2023-01-05T13:48:55;13.10;;;2.47;;
286;SDS011;127;48.770;9.212;2023-01-05T13:54:31;17.50;;;3.43;;
286;SDS011;127;48.770;9.212;2023-01-05T13:57:06;14.10;;;3.30;;
286;SDS011;127;48.770;9.212;2023-01-05T13:59:43;28.27;;;4.50;;
286;SDS011;127;48.770;9.212;2023-01-05T14:02:24;22.00;;;3.90;;
286;SDS011;127;48.770;9.212;2023-01-05T14:04:56;18.67;;;3.03;;
286;SDS011;127;48.770;9.212;2023-01-05T14:07:26;17.53;;;3.67;;
286;SDS011;127;48.770;9.212;2023-01-05T14:09:55;19.93;;;3.77;;
286;SDS011;127;48.770;9.212;2023-01-05T14:18:04;12.80;;;2.90;;
286;SDS011;127;48.770;9.212;2023-01-05T14:20:37;19.63;;;3.67;;
286;SDS011;127;48.770;9.212;2023-01-05T14:26:07;22.23;;;4.87;;
286;SDS011;127;48.770;9.212;2023-01-05T14:34:21;21.00;;;4.13;;
286;SDS011;127;48.770;9.212;2023-01-05T14:37:01;34.13;;;4.37;;
286;SDS011;127;48.770;9.212;2023-01-05T14:39:39;23.17;;;3.17;;
286;SDS011;127;48.770;9.212;2023-01-05T14:42:20;20.30;;;4.40;;
286;SDS011;127;48.770;9.212;2023-01-05T14:44:56;18.17;;;3.60;;
286;SDS011;127;48.770;9.212;2023-01-05T14:47:37;12.00;;;3.30;;
286;SDS011;127;48.770;9.212;2023-01-05T14:50:23;12.37;;;3.10;;
286;SDS011;127;48.770;9.212;2023-01-05T14:53:01;9.23;;;3.77;;
286;SDS011;127;48.770;9.212;2023-01-05T14:55:33;20.27;;;3.90;;
286;SDS011;127;48.770;9.212;2023-01-05T14:58:04;11.90;;;3.10;;
286;SDS011;127;48.770;9.212;2023-01-05T15:00:49;21.20;;;3.53;;
286;SDS011;127;48.770;9.212;2023-01-05T15:03:32;16.30;;;3.10;;
286;SDS011;127;48.770;9.212;2023-01-05T15:06:08;21.77;;;3.47;;
286;SDS011;127;48.770;9.212;2023-01-05T15:11:45;19.50;;;3.77;;
286;SDS011;127;48.770;9.212;2023-01-05T15:14:40;22.80;;;3.87;;
286;SDS011;127;48.770;9.212;2023-01-05T15:17:34;14.57;;;3.10;;
286;SDS011;127;48.770;9.212;2023-01-05T15:23:51;30.97;;;4.40;;
286;SDS011;127;48.770;9.212;2023-01-05T15:26:56;23.13;;;3.53;;
286;SDS011;127;48.770;9.212;2023-01-05T15:29:42;13.27;;;3.87;;
286;SDS011;127;48.770;9.212;2023-01-05T15:32:24;15.83;;;3.07;;
286;SDS011;127;48.770;9.212;2023-01-05T15:34:55;17.70;;;3.30;;
286;SDS011;127;48.770;9.212;2023-01-05T15:37:35;17.13;;;3.90;;
286;SDS011;127;48.770;9.212;2023-01-05T15:40:05;9.50;;;3.10;;
286;SDS011;127;48.770;9.212;2023-01-05T15:42:53;16.27;;;3.10;;
286;SDS011;127;48.770;9.212;2023-01-05T15:45:25;11.93;;;3.07;;
286;SDS011;127;48.770;9.212;2023-01-05T15:47:56;20.27;;;3.60;;
286;SDS011;127;48.770;9.212;2023-01-05T15:50:28;13.20;;;4.10;;
286;SDS011;127;48.770;9.212;2023-01-05T15:53:02;15.67;;;3.60;;
286;SDS011;127;48.770;9.212;2023-01-05T15:55:31;20.90;;;3.03;;
286;SDS011;127;48.770;9.212;2023-01-05T15:58:00;18.27;;;3.63;;
286;SDS011;127;48.770;9.212;2023-01-05T16:00:32;13.57;;;3.20;;
286;SDS011;127;48.770;9.212;2023-01-05T16:03:17;21.33;;;4.40;;
286;SDS011;127;48.770;9.212;2023-01-05T16:05:49;11.97;;;3.80;;
286;SDS011;127;48.770;9.212;2023-01-05T16:08:26;13.27;;;3.30;;
286;SDS011;127;48.770;9.212;2023-01-05T16:10:57;22.43;;;3.97;;
286;SDS011;127;48.770;9.212;2023-01-05T16:13:31;9.10;;;3.70;;
286;SDS011;127;48.770;9.212;2023-01-05T16:16:03;20.87;;;3.83;;
286;SDS011;127;48.770;9.212;2023-01-05T16:18:38;18.40;;;3.53;;
286;SDS011;127;48.770;9.212;2023-01-05T16:21:11;10.40;;;3.50;;
286;SDS011;127;48.770;9.212;2023-01-05T16:23:49;12.50;;;3.30;;
286;SDS011;127;48.770;9.212;2023-01-05T16:26:21;23.93;;;3.80;;
286;SDS011;127;48.770;9.212;2023-01-05T16:28:50;8.87;;;3.47;;
286;SDS011;127;48.770;9.212;2023-01-05T16:31:24;15.83;;;3.73;;
286;SDS011;127;48.770;9.212;2023-01-05T16:33:59;13.43;;;3.97;;
286;SDS011;127;48.770;9.212;2023-01-05T16:36:29;16.80;;;3.90;;
286;SDS011;127;48.770;9.212;2023-01-05T16:39:13;21.87;;;3.57;;
286;SDS011;127;48.770;9.212;2023-01-05T16:41:49;20.53;;;3.77;;
286;SDS011;127;48.770;9.212;2023-01-05T16:44:41;15.87;;;3.30;;
286;SDS011;127;48.770;9.212;2023-01-05T16:47:29;9.40;;;3.63;;
286;SDS011;127;48.770;9.212;2023-01-05T16:50:08;10.17;;;3.33;;
286;SDS011;127;48.770;9.212;2023-01-05T16:53:10;22.00;;;3.33;;
286;SDS011;127;48.770;9.212;2023-01-05T16:55:43;10.67;;;3.30;;
286;SDS011;127;48.770;9.212;2023-01-05T17:01:14;16.50;;;3.90;;
286;SDS011;127;48.770;9.212;2023-01-05T17:03:54;18.67;;;4.00;;
286;SDS011;127;48.770;9.212;2023-01-05T17:06:26;17.23;;;4.43;;
286;SDS011;127;48.770;9.212;2023-01-05T17:08:57;15.37;;;4.20;;
286;SDS011;127;48.770;9.212;2023-01-05T17:11:34;16.03;;;4.00;;
286;SDS011;127;48.770;9.212;2023-01-05T17:14:04;12.70;;;3.67;;
286;SDS011;127;48.770;9.212;2023-01-05T17:16:34;19.03;;;3.30;;